Latest Weather Observations for Flinders Reef

IDQ60801

Issued at 8:35 am EST Saturday 29 November 2014 (issued every 30 minutes, with the page automatically refreshed every 10 minutes)

About weather observations | Map of weather stations | Latest weather observations for QLD | Other Formats
Station Details ID: 200783 Name: FLINDERS REEF Lat: -17.72 Lon: 148.45 Height: 2.6 m
Data from the previous 72 hours. | See also: Recent months at Flinders Reef
Date/Time
EST
Temp
°C
App
Temp
°C
Dew
Point
Rel
Hum
%
Delta-T
°C
Wind Press
QNH
hPa
Press
MSL
hPa
Rain
since 9 am
mm
Dir
 
Spd
km/h
Gust
km/h
Spd
kts
Gust
kts
29/08:30am - - - - - E 39 44 21 24 1012.0 - -
29/08:24am - - - - - E 37 43 20 23 1012.0 1011.9 -
29/08:00am - - - - - ESE 35 43 19 23 1011.8 - -
29/07:30am - - - - - E 37 43 20 23 1011.3 - -
29/07:24am - - - - - E 39 - 21 - - 1011.2 -
29/07:00am - - - - - E 35 39 19 21 1011.2 - -
29/06:30am - - - - - ESE 19 24 10 13 1011.2 - -
29/06:24am - - - - - ESE 19 - 10 - - 1011.1 -
29/06:00am - - - - - ESE 43 54 23 29 1010.7 - -
29/05:41am - - - - - ESE 44 50 24 27 1010.3 - -
29/05:30am - - - - - E 35 43 19 23 1010.3 - -
29/05:24am - - - - - E 33 - 18 - - 1010.1 -
29/05:00am - - - - - E 33 39 18 21 1010.1 - -
29/04:30am - - - - - E 32 37 17 20 1010.1 - -
29/04:24am - - - - - E 32 - 17 - - 1009.9 -
29/04:00am - - - - - E 32 37 17 20 1009.8 - -
29/03:30am - - - - - E 33 37 18 20 1009.6 - -
29/03:24am - - - - - E 32 - 17 - - 1009.6 -
29/03:00am - - - - - E 33 39 18 21 1009.6 - -
29/02:30am - - - - - E 33 43 18 23 1009.8 - -
29/02:24am - - - - - E 33 - 18 - - 1009.7 -
29/02:00am - - - - - E 33 41 18 22 1010.1 - -
29/01:30am - - - - - E 30 41 16 22 1010.1 - -
29/01:24am - - - - - E 26 - 14 - - 1010.1 -
29/01:00am - - - - - ESE 30 54 16 29 1010.5 - -
29/12:56am - - - - - SE 35 54 19 29 1010.5 - -
29/12:54am - - - - - SE 37 54 20 29 1010.4 - -
29/12:30am - - - - - SE 26 33 14 18 1010.9 - -
29/12:24am - - - - - SE 33 - 18 - - 1010.8 -
29/12:00am - - - - - ESE 46 52 25 28 1011.1 - -
 
Date/Time
EST
Temp
°C
App
Temp
°C
Dew
Point
Rel
Hum
%
Delta-T
°C
Wind Press
QNH
hPa
Press
MSL
hPa
Rain
since 9 am
mm
Dir
 
Spd
km/h
Gust
km/h
Spd
kts
Gust
kts
28/11:30pm - - - - - ESE 33 43 18 23 1011.4 - -
28/11:24pm - - - - - ESE 32 - 17 - - 1011.5 -
28/11:00pm - - - - - ESE 35 46 19 25 1011.6 - -
28/10:30pm - - - - - E 33 50 18 27 1012.1 - -
28/10:24pm - - - - - E 39 - 21 - - 1011.9 -
28/10:17pm - - - - - ESE 33 52 18 28 1012.1 - -
28/10:00pm - - - - - E 28 35 15 19 1012.2 - -
28/09:30pm - - - - - ESE 32 39 17 21 1012.3 - -
28/09:24pm - - - - - ESE 28 - 15 - - 1012.0 -
28/09:00pm - - - - - ESE 24 32 13 17 1012.0 - -
28/08:30pm - - - - - SE 30 35 16 19 1011.6 - -
28/08:24pm - - - - - SE 30 - 16 - - 1011.6 -
28/08:00pm - - - - - SE 33 41 18 22 1011.6 - -
28/07:30pm - - - - - ESE 33 39 18 21 1011.3 - -
28/07:24pm - - - - - ESE 33 - 18 - - 1011.2 -
28/07:00pm - - - - - ESE 32 39 17 21 1011.1 - -
28/06:30pm - - - - - SE 35 41 19 22 1010.8 - -
28/06:24pm - - - - - SE 33 - 18 - - 1010.6 -
28/06:00pm - - - - - SE 33 39 18 21 1010.7 - -
28/05:30pm - - - - - SE 33 39 18 21 1010.6 - -
28/05:24pm - - - - - SE 33 - 18 - - 1010.4 -
28/05:00pm - - - - - SE 35 39 19 21 1010.4 - -
28/04:30pm - - - - - SE 32 37 17 20 1010.4 - -
28/04:24pm - - - - - SE 32 - 17 - - 1010.4 -
28/04:00pm - - - - - SE 30 35 16 19 1010.4 - -
28/03:30pm - - - - - SE 32 37 17 20 1010.4 - -
28/03:24pm - - - - - SE 32 - 17 - - 1010.3 -
28/03:00pm - - - - - SE 30 35 16 19 1010.5 - -
28/02:30pm - - - - - SE 30 33 16 18 1010.8 - -
28/02:24pm - - - - - SE 30 - 16 - - 1010.7 -
28/02:00pm - - - - - SE 26 32 14 17 1011.1 - -
28/01:30pm - - - - - SE 26 30 14 16 1011.2 - -
28/01:24pm - - - - - SE 26 - 14 - - 1011.2 -
28/01:00pm - - - - - SE 26 32 14 17 1011.5 - -
28/12:30pm - - - - - SE 26 32 14 17 1011.8 - -
28/12:24pm - - - - - SE 26 - 14 - - 1011.8 -
28/12:00pm - - - - - ESE 24 28 13 15 1012.0 - -
28/11:30am - - - - - ESE 28 32 15 17 1012.2 - -
28/11:24am - - - - - ESE 26 - 14 - - 1012.2 -
28/11:00am - - - - - ESE 28 32 15 17 1012.4 - -
28/10:30am - - - - - ESE 24 30 13 16 1012.6 - -
28/10:24am - - - - - ESE 26 - 14 - - 1012.5 -
28/10:00am - - - - - ESE 26 30 14 16 1012.7 - -
28/09:30am - - - - - ESE 28 33 15 18 1012.6 - -
28/09:24am - - - - - ESE 28 - 15 - - 1012.5 -
28/09:00am - - - - - E 30 33 16 18 1012.5 - -
28/08:30am - - - - - E 30 35 16 19 1012.1 - -
28/08:24am - - - - - E 30 - 16 - - 1011.9 -
28/08:00am - - - - - ESE 30 35 16 19 1012.0 - -
28/07:30am - - - - - E 32 35 17 19 1011.9 - -
28/07:24am - - - - - E 32 - 17 - - 1011.8 -
28/07:00am - - - - - ESE 32 37 17 20 1011.9 - -
28/06:30am - - - - - E 32 37 17 20 1011.7 - -
28/06:24am - - - - - ESE 30 - 16 - - 1011.6 -
28/06:00am - - - - - ESE 30 35 16 19 1011.4 - -
28/05:30am - - - - - ESE 32 35 17 19 1011.1 - -
28/05:24am - - - - - ESE 30 - 16 - - 1010.9 -
28/05:00am - - - - - ESE 30 35 16 19 1010.9 - -
28/04:30am - - - - - E 30 35 16 19 1010.8 - -
28/04:24am - - - - - E 30 - 16 - - 1010.6 -
28/04:00am - - - - - E 33 39 18 21 1010.6 - -
28/03:30am - - - - - E 33 37 18 20 1010.5 - -
28/03:24am - - - - - E 32 - 17 - - 1010.4 -
28/03:00am - - - - - E 32 37 17 20 1010.5 - -
28/02:30am - - - - - E 30 33 16 18 1010.5 - -
28/02:24am - - - - - E 30 - 16 - - 1010.4 -
28/02:00am - - - - - ESE 30 35 16 19 1010.7 - -
28/01:30am - - - - - ESE 32 33 17 18 1011.0 - -
28/01:24am - - - - - E 30 - 16 - - 1010.9 -
28/01:00am - - - - - ESE 30 35 16 19 1011.2 - -
28/12:30am - - - - - E 30 33 16 18 1011.4 - -
28/12:24am - - - - - E 28 - 15 - - 1011.3 -
28/12:00am - - - - - ESE 30 37 16 20 1011.6 - -
 
Date/Time
EST
Temp
°C
App
Temp
°C
Dew
Point
Rel
Hum
%
Delta-T
°C
Wind Press
QNH
hPa
Press
MSL
hPa
Rain
since 9 am
mm
Dir
 
Spd
km/h
Gust
km/h
Spd
kts
Gust
kts
27/11:30pm - - - - - ESE 28 33 15 18 1012.0 - -
27/11:24pm - - - - - ESE 30 - 16 - - 1011.9 -
27/11:00pm - - - - - ESE 28 33 15 18 1012.1 - -
27/10:30pm - - - - - ESE 30 35 16 19 1012.4 - -
27/10:24pm - - - - - ESE 30 - 16 - - 1012.2 -
27/10:00pm - - - - - ESE 30 35 16 19 1012.3 - -
27/09:30pm - - - - - ESE 30 35 16 19 1012.1 - -
27/09:24pm - - - - - ESE 30 - 16 - - 1012.0 -
27/09:00pm - - - - - ESE 32 35 17 19 1012.0 - -
27/08:30pm - - - - - ESE 32 37 17 20 1011.7 - -
27/08:24pm - - - - - ESE 32 - 17 - - 1011.6 -
27/08:00pm - - - - - ESE 32 35 17 19 1011.8 - -
27/07:30pm - - - - - E 19 28 10 15 1011.8 - -
27/07:24pm - - - - - ENE 26 - 14 - - 1011.6 -
27/07:10pm - - - - - ENE 37 46 20 25 1011.6 - -
27/07:00pm - - - - - E 35 46 19 25 1011.4 - -
27/06:30pm - - - - - SE 30 32 16 17 1011.2 - -
27/06:24pm - - - - - SE 30 - 16 - - 1011.1 -
27/06:00pm - - - - - SE 26 32 14 17 1011.1 - -
27/05:30pm - - - - - SE 24 28 13 15 1010.9 - -
27/05:24pm - - - - - SE 24 - 13 - - 1010.7 -
27/05:00pm - - - - - SE 22 26 12 14 1010.6 - -
27/04:30pm - - - - - SE 22 28 12 15 1010.3 - -
27/04:24pm - - - - - SE 22 - 12 - - 1010.2 -
27/04:00pm - - - - - SE 24 28 13 15 1010.1 - -
27/03:30pm - - - - - ESE 24 30 13 16 1010.2 - -
27/03:24pm - - - - - ESE 24 - 13 - - 1010.1 -
27/03:00pm - - - - - ESE 22 26 12 14 1010.4 - -
27/02:30pm - - - - - ESE 22 28 12 15 1010.4 - -
27/02:24pm - - - - - ESE 22 - 12 - - 1010.4 -
27/02:00pm - - - - - E 17 22 9 12 1010.7 - -
27/01:30pm - - - - - SSE 17 20 9 11 1010.9 - -
27/01:24pm - - - - - SSE 11 - 6 - - 1010.9 -
27/01:00pm - - - - - S 13 15 7 8 1011.2 - -
27/12:30pm - - - - - S 13 15 7 8 1011.4 - -
27/12:24pm - - - - - S 13 - 7 - - 1011.3 -
27/12:00pm - - - - - SE 13 17 7 9 1011.8 - -
27/11:30am - - - - - SE 15 17 8 9 1012.1 - -
27/11:24am - - - - - SE 15 - 8 - - 1012.1 -
27/11:00am - - - - - SSE 19 22 10 12 1012.5 - -
27/10:30am - - - - - SE 24 28 13 15 1012.8 - -
27/10:24am - - - - - SE 22 - 12 - - 1012.7 -
27/10:00am - - - - - SE 17 20 9 11 1013.0 - -
27/09:30am - - - - - SE 22 24 12 13 1013.0 - -
27/09:24am - - - - - SE 22 - 12 - - 1012.9 -
27/09:00am - - - - - SE 19 22 10 12 1013.2 - -
27/08:30am - - - - - SE 19 22 10 12 1013.3 - -
27/08:24am - - - - - SE 19 - 10 - - 1013.1 -
27/08:00am - - - - - SE 19 20 10 11 1013.0 - -
27/07:30am - - - - - ESE 17 20 9 11 1013.1 - -
27/07:24am - - - - - ESE 19 - 10 - - 1013.0 -
27/07:00am - - - - - ESE 19 22 10 12 1013.1 - -
27/06:30am - - - - - ESE 22 26 12 14 1012.7 - -
27/06:24am - - - - - ESE 20 - 11 - - 1012.5 -
27/06:00am - - - - - ESE 22 28 12 15 1012.4 - -
27/05:30am - - - - - E 26 30 14 16 1012.1 - -
27/05:24am - - - - - E 26 - 14 - - 1011.8 -
27/05:00am - - - - - E 24 28 13 15 1011.6 - -
27/04:30am - - - - - E 26 30 14 16 1011.4 - -
27/04:24am - - - - - E 26 - 14 - - 1011.3 -
27/04:00am - - - - - E 26 30 14 16 1011.1 - -
27/03:30am - - - - - E 28 32 15 17 1011.0 - -
27/03:24am - - - - - E 28 - 15 - - 1010.9 -
27/03:00am - - - - - E 28 32 15 17 1010.8 - -
27/02:30am - - - - - E 26 30 14 16 1011.0 - -
27/02:24am - - - - - E 26 - 14 - - 1010.8 -
27/02:00am - - - - - E 26 32 14 17 1011.0 - -
27/01:30am - - - - - E 28 32 15 17 1011.1 - -
27/01:24am - - - - - E 28 - 15 - - 1011.0 -
27/01:00am - - - - - E 28 32 15 17 1011.3 - -
27/12:30am - - - - - E 30 35 16 19 1011.5 - -
27/12:24am - - - - - E 30 - 16 - - 1011.3 -
27/12:00am - - - - - E 32 35 17 19 1011.6 - -
 
Date/Time
EST
Temp
°C
App
Temp
°C
Dew
Point
Rel
Hum
%
Delta-T
°C
Wind Press
QNH
hPa
Press
MSL
hPa
Rain
since 9 am
mm
Dir
 
Spd
km/h
Gust
km/h
Spd
kts
Gust
kts
26/11:30pm - - - - - E 30 37 16 20 1012.0 - -
26/11:24pm - - - - - E 30 - 16 - - 1012.1 -
26/11:00pm - - - - - E 33 37 18 20 1012.4 - -
26/10:30pm - - - - - E 32 35 17 19 1012.6 - -
26/10:24pm - - - - - E 33 - 18 - - 1012.6 -
26/10:00pm - - - - - E 33 39 18 21 1012.8 - -
26/09:30pm - - - - - E 33 39 18 21 1012.7 - -
26/09:24pm - - - - - E 33 - 18 - - 1012.7 -
26/09:00pm - - - - - E 32 37 17 20 1012.6 - -
26/08:30pm - - - - - E 32 37 17 20 1012.4 - -
26/08:24pm - - - - - E 32 - 17 - - 1012.3 -
26/08:00pm - - - - - E 33 39 18 21 1012.1 - -
26/07:30pm - - - - - E 32 35 17 19 1011.9 - -
26/07:24pm - - - - - E 32 - 17 - - 1011.7 -
26/07:00pm - - - - - E 32 35 17 19 1011.8 - -
26/06:30pm - - - - - E 30 33 16 18 1011.5 - -
26/06:24pm - - - - - E 32 - 17 - - 1011.4 -
26/06:00pm - - - - - E 28 35 15 19 1011.2 - -
26/05:30pm - - - - - E 32 35 17 19 1011.1 - -
26/05:24pm - - - - - E 32 - 17 - - 1011.0 -
26/05:00pm - - - - - E 33 35 18 19 1010.9 - -
26/04:30pm - - - - - E 28 32 15 17 1010.6 - -
26/04:24pm - - - - - E 30 - 16 - - 1010.4 -
26/04:00pm - - - - - E 30 35 16 19 1010.4 - -
26/03:30pm - - - - - E 33 37 18 20 1010.3 - -
26/03:24pm - - - - - E 33 - 18 - - 1010.2 -
26/03:00pm - - - - - E 32 37 17 20 1010.4 - -
26/02:30pm - - - - - E 33 41 18 22 1010.3 - -
26/02:24pm - - - - - E 33 - 18 - - 1010.4 -
26/02:00pm - - - - - E 35 39 19 21 1010.6 - -
26/01:30pm - - - - - E 35 39 19 21 1011.0 - -
26/01:24pm - - - - - E 35 - 19 - - 1011.0 -
26/01:00pm - - - - - E 33 39 18 21 1011.2 - -
26/12:30pm - - - - - E 37 43 20 23 1011.2 - -
26/12:24pm - - - - - E 37 - 20 - - 1011.2 -
26/12:00pm - - - - - E 39 44 21 24 1011.6 - -
26/11:30am - - - - - E 41 46 22 25 1011.8 - -
26/11:24am - - - - - E 39 - 21 - - 1011.8 -
26/11:00am - - - - - E 35 50 19 27 1012.1 - -
26/10:30am - - - - - E 28 33 15 18 1012.4 - -
26/10:24am - - - - - E 30 - 16 - - 1012.4 -
26/10:00am - - - - - E 32 44 17 24 1012.7 - -
26/09:30am - - - - - E 30 33 16 18 1012.7 - -
26/09:24am - - - - - E 28 - 15 - - 1012.6 -
26/09:00am - - - - - E 32 35 17 19 1012.5 - -

Other Formats:

Comma delimited format used in spreadsheet applications
http://www.bom.gov.au/fwo/IDQ60801/IDQ60801.94290.axf

JavaScript Object Notation format (JSON) in row-major order
http://www.bom.gov.au/fwo/IDQ60801/IDQ60801.94290.json